LFRN/RNS METAR and TAF weather

Enter ICAO airport designator
Station Type Date Time Source
LFRN METAR 2019/08/22 04:30 UTC NOAA

LFRN 220430Z AUTO VRB02KT CAVOK 10/10 Q1025 TEMPO 0800 BCFG


Station Type Date Time Source
LFRN Decoded METAR 2019/08/22 04:30 UTC NOAA

Station name not available
Aug 22, 2019 - 12:30 AM EDT / 2019.08.22 0430 UTC
Wind: Variable at 2 MPH (2 KT):0
Visibility: greater than 7 mile(s):0
Temperature: 50 F (10 C)
Dew Point: 50 F (10 C)
Relative Humidity: 100%
Pressure (altimeter): 30.27 in. Hg (1025 hPa)
ob: LFRN 220430Z AUTO VRB02KT CAVOK 10/10 Q1025 TEMPO 0800 BCFG
cycle: 4

Station Type Date Time Source
LFRN TAF 2019/08/21 18:21 UTC NOAA

TAF LFRN 211700Z 2118/2218 VRB04KT CAVOK PROB30
TEMPO 2203/2206 0800 BCFG

Example: see airport list